Time;durP1;ratioP1;P1;durP2;ratioP2;P2;SDS_P1;SDS_P2;PMS_P1;PMS_P2;Temp;Humidity;BMP_temperature;BMP_pressure;BME280_temperature;BME280_humidity;BME280_pressure;Samples;Min_cycle;Max_cycle;Signal;HPM_P1;HPM_P2
2022/01/27 00:00:38;;;;;;;42.10;17.23;;;;;;;6.93;68.99;102117.97;4978383;28;98408;-78
2022/01/27 00:03:24;;;;;;;47.20;18.30;;;;;;;6.95;68.98;102131.22;4975810;28;96799;-79
2022/01/27 00:06:07;;;;;;;45.33;17.07;;;;;;;6.95;68.62;102112.84;4965689;28;96963;-77
2022/01/27 00:11:09;;;;;;;38.50;16.67;;;;;;;6.98;68.41;102103.78;4983069;28;96899;-78
2022/01/27 00:13:43;;;;;;;37.80;16.90;;;;;;;6.98;68.55;102103.78;4979990;28;97092;-78
2022/01/27 00:16:23;;;;;;;43.50;18.80;;;;;;;7.00;68.58;102114.28;4965522;28;97586;-78
2022/01/27 00:18:50;;;;;;;43.07;18.00;;;;;;;7.01;68.90;102111.13;4970514;28;99191;-79
2022/01/27 00:21:19;;;;;;;42.47;18.07;;;;;;;7.03;68.56;102114.22;4966647;28;98960;-78
2022/01/27 00:23:45;;;;;;;40.63;16.83;;;;;;;7.03;68.35;102084.13;4982570;28;97624;-79
2022/01/27 00:26:12;;;;;;;38.13;16.20;;;;;;;7.02;68.59;102098.97;4963439;28;97389;-80
2022/01/27 00:28:38;;;;;;;40.43;17.17;;;;;;;7.01;68.70;102089.22;4966968;28;99353;-80
2022/01/27 00:31:04;;;;;;;46.93;17.50;;;;;;;7.02;68.72;102076.31;4980512;28;100257;-79
2022/01/27 00:33:29;;;;;;;41.83;16.80;;;;;;;7.00;68.70;102054.88;4935998;28;110608;-79
2022/01/27 00:35:55;;;;;;;38.70;16.30;;;;;;;7.03;68.58;102078.66;4963103;28;103813;-79
2022/01/27 00:38:20;;;;;;;41.80;16.97;;;;;;;7.01;68.68;102081.00;4967407;28;98386;-78
2022/01/27 00:40:45;;;;;;;37.27;15.70;;;;;;;6.99;68.51;102063.53;4982473;28;113884;-79
2022/01/27 00:43:11;;;;;;;41.10;17.03;;;;;;;7.00;68.62;102057.59;4977259;28;115942;-79
2022/01/27 00:45:37;;;;;;;44.57;18.93;;;;;;;7.00;68.73;102054.09;4983510;28;98507;-79
2022/01/27 00:48:04;;;;;;;39.00;16.50;;;;;;;7.02;68.76;102046.22;4964868;28;97772;-79
2022/01/27 00:50:32;;;;;;;39.50;17.30;;;;;;;7.03;68.71;102045.03;4957766;28;98188;-79
2022/01/27 00:53:01;;;;;;;44.80;17.63;;;;;;;7.02;68.96;102044.25;4982152;28;97009;-78
2022/01/27 00:55:28;;;;;;;39.80;16.57;;;;;;;7.04;68.74;102052.81;4963285;28;97746;-80
2022/01/27 00:58:09;;;;;;;32.23;15.33;;;;;;;7.02;68.79;102051.69;4982963;28;98876;-79
2022/01/27 01:00:40;;;;;;;39.50;16.70;;;;;;;7.06;68.57;102044.94;4965593;28;103110;-78
2022/01/27 01:03:14;;;;;;;40.53;16.20;;;;;;;7.07;68.60;102056.66;4958992;28;97175;-79
2022/01/27 01:15:58;;;;;;;36.37;15.90;;;;;;;7.08;68.49;102020.63;4981927;28;97050;-79
2022/01/27 01:32:10;;;;;;;34.60;15.77;;;;;;;7.04;68.57;101962.50;4983207;28;100034;-79
2022/01/27 01:34:42;;;;;;;34.17;14.77;;;;;;;7.07;68.62;101956.16;4961288;28;97400;-79
2022/01/27 01:37:09;;;;;;;38.40;15.57;;;;;;;7.11;68.37;101950.59;4965148;28;96818;-80
2022/01/27 01:39:36;;;;;;;40.57;16.73;;;;;;;7.10;68.51;101958.03;4964429;28;99373;-80
2022/01/27 01:42:05;;;;;;;36.90;17.60;;;;;;;7.07;68.30;101967.13;4963187;28;99931;-80
2022/01/27 01:44:31;;;;;;;36.90;15.60;;;;;;;7.12;68.44;101935.72;4960973;28;97115;-80
2022/01/27 01:46:57;;;;;;;35.23;16.30;;;;;;;7.08;68.53;101927.59;4965855;28;97440;-79
2022/01/27 01:49:26;;;;;;;32.77;15.57;;;;;;;7.12;68.29;101927.50;4958592;28;100173;-80
2022/01/27 01:51:55;;;;;;;38.00;16.30;;;;;;;7.15;68.19;101965.69;4963559;28;100132;-80
2022/01/27 01:54:20;;;;;;;33.40;16.67;;;;;;;7.13;68.32;101946.22;4964220;28;96812;-80
2022/01/27 01:56:46;;;;;;;30.50;14.63;;;;;;;7.13;68.08;101945.44;4981453;28;97289;-80
2022/01/27 01:59:12;;;;;;;34.20;16.30;;;;;;;7.14;68.17;101953.19;4964287;28;125867;-78
2022/01/27 02:01:38;;;;;;;32.67;16.10;;;;;;;7.16;68.16;101955.53;4962695;28;99298;-79
2022/01/27 02:04:08;;;;;;;38.20;16.63;;;;;;;7.18;68.40;101940.22;4979245;28;100548;-81
2022/01/27 02:06:42;;;;;;;33.47;15.60;;;;;;;7.17;67.91;101930.44;4962905;28;98512;-80
2022/01/27 02:19:53;;;;;;;29.10;15.10;;;;;;;7.14;68.08;101914.88;4982924;28;100355;-80
2022/01/27 02:22:20;;;;;;;30.70;16.03;;;;;;;7.17;68.21;101897.59;4964788;28;99751;-79
2022/01/27 02:24:46;;;;;;;26.43;13.40;;;;;;;7.20;68.13;101902.22;4962129;28;96798;-79
2022/01/27 02:27:14;;;;;;;25.20;14.77;;;;;;;7.22;67.98;101908.00;4981765;28;98259;-80
2022/01/27 02:29:40;;;;;;;33.90;16.50;;;;;;;7.16;67.85;101909.00;4959853;28;100709;-78
2022/01/27 02:32:07;;;;;;;34.77;15.30;;;;;;;7.21;68.03;101925.63;4956053;28;99404;-79
2022/01/27 02:34:32;;;;;;;29.87;14.10;;;;;;;7.22;67.97;101915.44;4980731;28;97344;-77
2022/01/27 02:36:58;;;;;;;28.40;15.70;;;;;;;7.19;67.94;101895.19;4980091;28;96746;-80
2022/01/27 02:39:23;;;;;;;34.77;16.33;;;;;;;7.25;67.96;101920.06;4980649;28;125378;-81
2022/01/27 02:41:48;;;;;;;34.67;16.27;;;;;;;7.26;67.56;101881.28;4961148;28;102022;-79
2022/01/27 02:44:29;;;;;;;31.63;15.30;;;;;;;7.22;67.30;101899.81;4964493;28;103919;-80
2022/01/27 02:46:55;;;;;;;28.60;14.10;;;;;;;7.18;67.70;101921.03;4981522;28;96866;-80
2022/01/27 02:49:20;;;;;;;30.97;15.00;;;;;;;7.19;67.86;101916.31;4967132;28;100584;-78
2022/01/27 02:51:46;;;;;;;30.60;15.10;;;;;;;7.19;67.37;101906.16;4962491;28;126002;-80
2022/01/27 02:54:11;;;;;;;28.70;14.53;;;;;;;7.23;67.68;101912.28;4962499;28;117323;-80
2022/01/27 02:56:43;;;;;;;32.70;15.13;;;;;;;7.22;67.42;101916.22;4982953;28;97118;-80
2022/01/27 02:59:09;;;;;;;31.40;15.97;;;;;;;7.21;67.57;101903.72;4962653;28;100663;-80
2022/01/27 03:01:34;;;;;;;33.33;16.40;;;;;;;7.21;67.54;101911.94;4983252;28;97241;-80
2022/01/27 03:03:59;;;;;;;36.20;16.83;;;;;;;7.19;67.41;101906.16;4960480;28;102376;-79
2022/01/27 03:06:25;;;;;;;33.13;16.50;;;;;;;7.19;67.75;101908.09;4962187;28;117478;-81
2022/01/27 03:08:50;;;;;;;37.30;15.37;;;;;;;7.20;67.53;101907.69;4963944;28;129615;-80
2022/01/27 03:11:36;;;;;;;35.60;17.73;;;;;;;7.21;66.99;101909.19;4979829;28;108601;-80
2022/01/27 03:14:02;;;;;;;35.43;17.17;;;;;;;7.20;67.39;101891.28;4962138;28;97504;-80
2022/01/27 03:16:27;;;;;;;32.67;15.97;;;;;;;7.21;67.40;101930.31;4959792;28;96901;-80
2022/01/27 03:18:53;;;;;;;36.00;15.73;;;;;;;7.24;67.34;101882.94;4959066;28;125912;-80
2022/01/27 03:21:18;;;;;;;35.00;15.70;;;;;;;7.28;67.61;101875.38;4968591;28;99165;-77
2022/01/27 03:23:44;;;;;;;37.50;16.87;;;;;;;7.19;67.40;101864.31;4968133;28;97082;-79
2022/01/27 03:26:09;;;;;;;31.27;14.57;;;;;;;7.26;67.50;101861.38;4982961;28;117588;-79
2022/01/27 03:28:34;;;;;;;33.43;15.73;;;;;;;7.24;67.15;101863.78;4967830;28;99927;-80
2022/01/27 03:31:00;;;;;;;33.30;16.30;;;;;;;7.22;67.18;101852.50;4985098;28;103714;-81
2022/01/27 03:33:25;;;;;;;34.07;15.97;;;;;;;7.21;67.30;101864.63;4966871;28;97472;-79
2022/01/27 03:35:50;;;;;;;34.80;16.37;;;;;;;7.23;67.32;101835.63;4965096;28;97765;-81
2022/01/27 03:38:16;;;;;;;35.20;15.70;;;;;;;7.25;67.44;101852.38;4981418;28;104794;-80
2022/01/27 03:40:41;;;;;;;29.70;13.47;;;;;;;7.25;67.03;101835.97;4956386;28;100021;-80
2022/01/27 03:43:09;;;;;;;34.90;18.00;;;;;;;7.22;66.99;101868.94;4966013;28;97933;-79
2022/01/27 03:45:34;;;;;;;34.93;16.30;;;;;;;7.21;66.96;101827.09;4967678;28;96802;-79
2022/01/27 03:48:00;;;;;;;36.57;17.50;;;;;;;7.21;67.20;101820.84;4966230;28;99711;-79
2022/01/27 03:50:26;;;;;;;32.60;16.00;;;;;;;7.22;66.91;101836.84;4981654;28;97099;-80
2022/01/27 03:52:51;;;;;;;29.97;16.10;;;;;;;7.23;66.97;101841.09;4982880;28;96900;-79
2022/01/27 03:55:16;;;;;;;32.03;15.90;;;;;;;7.26;66.99;101848.44;4983402;28;97149;-79
2022/01/27 03:57:42;;;;;;;33.70;17.17;;;;;;;7.23;66.99;101827.41;4962657;28;100397;-80
2022/01/27 04:00:09;;;;;;;31.63;15.40;;;;;;;7.27;66.88;101827.31;4968609;28;103747;-79
2022/01/27 04:02:37;;;;;;;36.30;16.60;;;;;;;7.23;66.69;101818.47;4984462;28;96966;-81
2022/01/27 04:05:03;;;;;;;36.80;16.60;;;;;;;7.21;67.04;101823.59;4984636;28;97649;-80
2022/01/27 04:07:28;;;;;;;36.70;17.20;;;;;;;7.24;67.01;101814.50;4967370;28;100457;-80
2022/01/27 04:09:54;;;;;;;38.23;17.37;;;;;;;7.25;66.72;101805.09;4967643;28;125224;-79
2022/01/27 04:12:19;;;;;;;35.53;17.50;;;;;;;7.21;66.99;101793.47;4985665;28;97132;-79
2022/01/27 04:14:45;;;;;;;42.30;17.30;;;;;;;7.21;66.63;101777.06;4976098;28;97397;-79
2022/01/27 04:17:10;;;;;;;36.57;17.90;;;;;;;7.18;66.64;101795.16;4965581;28;100584;-80
2022/01/27 04:19:35;;;;;;;36.93;18.20;;;;;;;7.15;66.83;101785.09;4984518;28;126427;-79
2022/01/27 04:22:02;;;;;;;39.23;17.10;;;;;;;7.14;66.87;101764.38;4962791;28;113375;-79
2022/01/27 04:24:28;;;;;;;43.10;18.37;;;;;;;7.14;66.72;101769.84;4970561;28;103597;-81
2022/01/27 04:27:01;;;;;;;36.10;17.87;;;;;;;7.11;66.54;101787.16;4972609;28;100677;-80
2022/01/27 04:29:27;;;;;;;34.00;16.60;;;;;;;7.11;66.53;101762.53;4987320;28;97247;-81
2022/01/27 04:31:53;;;;;;;35.00;17.77;;;;;;;7.09;66.51;101775.91;4974392;28;96862;-79
2022/01/27 04:34:19;;;;;;;30.13;16.23;;;;;;;7.13;66.77;101775.78;4970174;28;96976;-78
2022/01/27 04:36:45;;;;;;;38.13;17.77;;;;;;;7.18;66.88;101756.84;4960063;28;100527;-80
2022/01/27 04:39:27;;;;;;;34.37;16.60;;;;;;;7.17;66.53;101755.31;4985293;28;98441;-81
2022/01/27 04:42:09;;;;;;;33.63;16.23;;;;;;;7.15;66.43;101746.78;4964648;28;96960;-81
2022/01/27 04:44:53;;;;;;;35.63;17.00;;;;;;;7.16;66.62;101750.28;4981676;28;97050;-81
2022/01/27 04:47:29;;;;;;;32.90;16.10;;;;;;;7.17;66.63;101746.31;4966224;28;103714;-81
2022/01/27 04:49:56;;;;;;;33.83;16.90;;;;;;;7.11;66.60;101761.78;4976758;28;103465;-80
2022/01/27 04:52:22;;;;;;;33.07;16.50;;;;;;;7.12;66.40;101739.44;4978880;28;97294;-81
2022/01/27 04:55:01;;;;;;;41.53;17.80;;;;;;;7.13;66.51;101735.50;4962012;28;97342;-80
2022/01/27 04:57:28;;;;;;;35.47;17.00;;;;;;;7.15;66.46;101735.06;4965030;28;106016;-78
2022/01/27 04:59:54;;;;;;;33.73;16.23;;;;;;;7.16;66.63;101748.31;4981370;28;97865;-81
2022/01/27 05:02:29;;;;;;;39.33;18.30;;;;;;;7.13;66.49;101701.91;4984005;28;96900;-81
2022/01/27 05:04:55;;;;;;;31.57;16.20;;;;;;;7.15;66.49;101713.16;4964918;28;97051;-81
2022/01/27 05:07:20;;;;;;;34.17;16.87;;;;;;;7.17;66.42;101724.44;4963713;28;99433;-81
2022/01/27 05:09:54;;;;;;;27.97;14.60;;;;;;;7.16;66.43;101715.47;4963382;28;129556;-77
2022/01/27 05:13:09;;;;;;;40.90;17.97;;;;;;;7.13;66.07;101699.94;4967734;28;97468;-80
2022/01/27 05:15:05;;;;;;;31.60;16.27;;;;;;;7.14;66.15;101711.66;4946346;28;97326;-79
2022/01/27 05:17:31;;;;;;;29.53;15.87;;;;;;;7.10;66.23;101692.59;4984891;28;98058;-82
2022/01/27 05:19:56;;;;;;;36.43;18.50;;;;;;;7.08;65.86;101699.72;4964528;28;100075;-82
2022/01/27 05:22:21;;;;;;;31.57;17.17;;;;;;;7.08;66.07;101681.31;4980548;28;101097;-82
2022/01/27 05:24:47;;;;;;;33.87;15.80;;;;;;;7.08;66.20;101680.56;4963392;28;98686;-80
2022/01/27 05:27:12;;;;;;;35.10;16.60;;;;;;;7.11;66.25;101713.28;4980380;28;123485;-83
2022/01/27 05:29:38;;;;;;;34.63;17.17;;;;;;;7.16;66.25;101684.59;4965435;28;104753;-80
2022/01/27 05:32:04;;;;;;;33.50;17.00;;;;;;;7.16;66.12;101698.28;4964178;28;97347;-82
2022/01/27 05:34:29;;;;;;;35.60;16.50;;;;;;;7.12;66.25;101687.44;4979932;28;97042;-81
2022/01/27 05:36:55;;;;;;;30.90;15.83;;;;;;;7.10;66.27;101684.38;4984444;28;97627;-82
2022/01/27 05:39:20;;;;;;;31.57;16.70;;;;;;;7.10;65.82;101698.06;4982973;28;97964;-81
2022/01/27 05:41:46;;;;;;;33.13;18.03;;;;;;;7.10;66.07;101684.38;4956336;28;96837;-80
2022/01/27 05:44:11;;;;;;;33.30;17.40;;;;;;;7.11;66.18;101677.72;4963220;28;105504;-80
2022/01/27 05:46:36;;;;;;;34.03;17.37;;;;;;;7.14;66.24;101676.06;4981918;28;97903;-80
2022/01/27 05:49:02;;;;;;;34.23;16.10;;;;;;;7.16;66.09;101693.59;4964607;28;123029;-80
2022/01/27 05:51:27;;;;;;;29.00;15.23;;;;;;;7.18;66.21;101682.94;4978142;28;99300;-79
2022/01/27 05:53:53;;;;;;;31.97;16.20;;;;;;;7.19;66.09;101680.97;4982381;28;97230;-80
2022/01/27 05:56:18;;;;;;;31.13;16.60;;;;;;;7.15;66.20;101678.34;4982931;28;97874;-78
2022/01/27 05:58:44;;;;;;;31.27;18.03;;;;;;;7.10;65.80;101643.34;4964994;28;100386;-80
2022/01/27 06:01:10;;;;;;;37.03;17.83;;;;;;;7.09;66.20;101677.41;4954630;28;98200;-79
2022/01/27 06:03:35;;;;;;;31.87;16.77;;;;;;;7.12;66.17;101671.03;4964670;28;98699;-81
2022/01/27 06:06:01;;;;;;;32.90;15.97;;;;;;;7.12;66.25;101673.00;4963803;28;99836;-83
2022/01/27 06:08:28;;;;;;;33.50;16.60;;;;;;;7.12;66.06;101679.22;4959468;28;113239;-81
2022/01/27 06:10:54;;;;;;;33.17;16.17;;;;;;;7.15;66.05;101697.50;4961115;28;98096;-79
2022/01/27 06:13:19;;;;;;;31.50;15.60;;;;;;;7.19;66.23;101673.53;4961981;28;96799;-81
2022/01/27 06:15:45;;;;;;;32.17;15.23;;;;;;;7.19;66.10;101654.38;4981341;28;110614;-80
2022/01/27 06:18:10;;;;;;;33.03;17.07;;;;;;;7.22;66.06;101661.69;4964430;28;100024;-83
2022/01/27 06:20:37;;;;;;;29.57;14.87;;;;;;;7.20;66.17;101639.50;4961969;28;100062;-79
2022/01/27 06:23:03;;;;;;;29.13;14.97;;;;;;;7.25;66.11;101649.84;4978979;28;97453;-81
2022/01/27 06:25:30;;;;;;;34.17;16.63;;;;;;;7.20;65.54;101619.56;4963586;28;99506;-80
2022/01/27 06:27:55;;;;;;;31.73;16.30;;;;;;;7.20;66.09;101652.41;4981855;28;97742;-81
2022/01/27 06:30:21;;;;;;;30.37;15.87;;;;;;;7.17;65.83;101639.59;4980440;28;97463;-79
2022/01/27 06:32:46;;;;;;;34.33;17.17;;;;;;;7.13;66.03;101652.63;4981239;28;97306;-80
2022/01/27 06:35:12;;;;;;;32.13;15.07;;;;;;;7.14;66.17;101643.25;4980027;28;99322;-81
2022/01/27 06:37:39;;;;;;;32.37;16.50;;;;;;;7.14;66.23;101635.03;4977973;28;104490;-80
2022/01/27 06:40:06;;;;;;;32.50;16.50;;;;;;;7.12;66.21;101629.97;4962900;28;101064;-81
2022/01/27 06:42:31;;;;;;;31.40;16.00;;;;;;;7.07;66.45;101636.03;4962511;28;98654;-79
2022/01/27 06:44:57;;;;;;;36.80;16.40;;;;;;;7.08;66.35;101620.38;4964198;28;122056;-80
2022/01/27 06:47:22;;;;;;;34.00;16.17;;;;;;;7.06;66.51;101634.50;4965800;28;99322;-80
2022/01/27 06:49:48;;;;;;;32.33;16.07;;;;;;;7.00;66.32;101616.34;4962347;28;97303;-79
2022/01/27 06:52:13;;;;;;;32.97;15.73;;;;;;;7.01;66.46;101609.69;4981597;28;97492;-80
2022/01/27 06:54:39;;;;;;;34.37;16.17;;;;;;;7.01;66.48;101615.91;4985253;28;99763;-81
2022/01/27 06:57:05;;;;;;;36.00;18.07;;;;;;;7.00;66.80;101619.09;4983336;28;97530;-80
2022/01/27 06:59:31;;;;;;;32.50;16.00;;;;;;;6.99;66.84;101614.84;4979491;28;96839;-79
2022/01/27 07:01:57;;;;;;;33.17;16.80;;;;;;;6.97;66.78;101615.28;4966023;28;96982;-77
2022/01/27 07:04:22;;;;;;;33.47;17.40;;;;;;;6.93;66.68;101611.91;4965133;28;102952;-79
2022/01/27 07:06:48;;;;;;;30.90;16.60;;;;;;;6.91;66.97;101603.38;4982708;28;104331;-80
2022/01/27 07:09:14;;;;;;;31.47;15.63;;;;;;;6.90;66.91;101609.28;4956799;28;97094;-80
2022/01/27 07:11:39;;;;;;;32.13;15.27;;;;;;;6.92;67.17;101612.34;4979649;28;113731;-82
2022/01/27 07:14:05;;;;;;;34.37;17.57;;;;;;;6.89;66.99;101589.38;4979711;28;101673;-80
2022/01/27 07:16:31;;;;;;;28.83;15.37;;;;;;;6.90;66.93;101582.72;4961256;28;99266;-81
2022/01/27 07:18:56;;;;;;;33.87;18.50;;;;;;;6.86;67.09;101587.50;4978829;28;96798;-81
2022/01/27 07:21:21;;;;;;;36.07;16.70;;;;;;;6.88;67.08;101589.81;4984054;28;97079;-78
2022/01/27 07:23:47;;;;;;;30.53;15.70;;;;;;;6.86;66.87;101582.03;4981828;28;115372;-80
2022/01/27 07:26:14;;;;;;;35.07;17.57;;;;;;;6.86;67.20;101573.84;4984246;28;97565;-78
2022/01/27 07:28:40;;;;;;;33.00;16.73;;;;;;;6.78;67.60;101565.13;4962143;28;98521;-78
2022/01/27 07:31:05;;;;;;;34.13;16.90;;;;;;;6.76;67.20;101567.56;4979945;28;97432;-80
2022/01/27 07:33:30;;;;;;;33.10;16.27;;;;;;;6.78;67.29;101575.31;4980867;28;100199;-79
2022/01/27 07:35:56;;;;;;;35.60;17.40;;;;;;;6.76;67.43;101564.81;4962945;28;114826;-79
2022/01/27 07:38:23;;;;;;;33.50;17.10;;;;;;;6.75;67.43;101571.47;4963342;28;97510;-77
2022/01/27 07:40:49;;;;;;;30.90;16.20;;;;;;;6.77;67.60;101549.91;4962560;28;97035;-77
2022/01/27 07:43:14;;;;;;;33.80;16.47;;;;;;;6.76;67.74;101555.84;4967213;28;100579;-79
2022/01/27 07:45:39;;;;;;;36.40;17.47;;;;;;;6.75;67.79;101559.78;4964279;28;100302;-79
2022/01/27 07:48:05;;;;;;;33.80;16.53;;;;;;;6.74;67.40;101561.75;4980912;28;103113;-80
2022/01/27 07:50:31;;;;;;;27.87;15.47;;;;;;;6.75;67.94;101548.84;4963753;28;96925;-80
2022/01/27 07:52:57;;;;;;;34.07;16.90;;;;;;;6.73;67.72;101551.25;4965390;28;100781;-82
2022/01/27 07:55:22;;;;;;;34.70;17.37;;;;;;;6.72;67.76;101558.72;4964632;28;97919;-77
2022/01/27 07:57:47;;;;;;;33.47;17.33;;;;;;;6.70;68.09;101552.91;4985846;28;100457;-79
2022/01/27 08:00:14;;;;;;;33.57;16.20;;;;;;;6.76;67.88;101561.31;4977925;28;97516;-81
2022/01/27 08:02:40;;;;;;;34.13;16.47;;;;;;;6.75;68.08;101540.63;4984147;28;97371;-78
2022/01/27 08:05:05;;;;;;;30.23;16.17;;;;;;;6.71;68.18;101553.66;4983357;28;97214;-79
2022/01/27 08:07:31;;;;;;;31.70;16.90;;;;;;;6.77;67.77;101538.97;4981372;28;98297;-79
2022/01/27 08:09:56;;;;;;;33.70;16.57;;;;;;;6.80;67.93;101543.56;4984796;28;96800;-79
2022/01/27 08:12:22;;;;;;;31.40;15.83;;;;;;;6.84;67.97;101524.28;4984738;28;97532;-79
2022/01/27 08:14:47;;;;;;;29.50;15.87;;;;;;;6.87;68.07;101534.34;4962962;28;117051;-80
2022/01/27 08:17:13;;;;;;;27.57;15.10;;;;;;;6.88;67.87;101532.38;4983828;28;100573;-79
2022/01/27 08:19:39;;;;;;;27.53;15.87;;;;;;;6.86;68.19;101507.47;4955359;28;98237;-80
2022/01/27 08:22:04;;;;;;;32.13;15.93;;;;;;;6.88;68.32;101530.41;4963522;28;99506;-80
2022/01/27 08:24:30;;;;;;;32.10;16.53;;;;;;;6.87;68.26;101526.16;4983906;28;126462;-81
2022/01/27 08:27:01;;;;;;;26.00;13.40;;;;;;;6.88;68.20;101529.66;4980647;28;109635;-81
2022/01/27 08:29:40;;;;;;;28.43;14.87;;;;;;;6.91;68.20;101531.47;4978544;28;97002;-80
2022/01/27 08:32:10;;;;;;;30.10;14.87;;;;;;;6.89;68.47;101521.00;4965679;28;103235;-80
2022/01/27 08:34:37;;;;;;;26.80;14.23;;;;;;;6.93;68.26;101518.91;4956636;28;103686;-80
2022/01/27 08:37:08;;;;;;;27.17;14.60;;;;;;;6.97;68.21;101518.78;4984388;28;102085;-80
2022/01/27 08:39:34;;;;;;;25.17;13.50;;;;;;;6.99;68.56;101532.78;4980386;28;99219;-80
2022/01/27 08:42:00;;;;;;;24.43;11.90;;;;;;;6.96;68.51;101520.75;4983890;28;97930;-80
2022/01/27 08:44:26;;;;;;;22.67;13.23;;;;;;;6.93;68.45;101515.38;4983713;28;97419;-79
2022/01/27 08:46:51;;;;;;;25.20;13.17;;;;;;;6.97;68.67;101508.59;4983470;28;98082;-77
2022/01/27 08:49:19;;;;;;;22.53;12.60;;;;;;;7.02;68.58;101508.00;4963021;28;96773;-80
2022/01/27 08:51:44;;;;;;;22.97;12.43;;;;;;;7.00;68.66;101526.84;4966881;28;102004;-81
2022/01/27 08:54:10;;;;;;;22.20;12.70;;;;;;;6.99;68.74;101503.44;4963762;28;100755;-80
2022/01/27 08:56:36;;;;;;;20.93;11.50;;;;;;;7.05;68.56;101507.13;4966203;28;96932;-80
2022/01/27 08:59:02;;;;;;;18.73;10.77;;;;;;;7.08;68.63;101489.81;4981611;28;97507;-80
2022/01/27 09:01:28;;;;;;;16.93;10.60;;;;;;;7.11;68.59;101482.69;4964136;28;102279;-79
2022/01/27 09:03:54;;;;;;;17.40;9.77;;;;;;;7.15;68.66;101486.81;4981694;28;97764;-80
2022/01/27 09:06:19;;;;;;;18.30;10.30;;;;;;;7.16;68.65;101482.88;4963661;28;96766;-81
2022/01/27 09:08:46;;;;;;;19.90;9.80;;;;;;;7.21;68.61;101486.97;4958721;28;97162;-82
2022/01/27 09:11:12;;;;;;;17.83;9.40;;;;;;;7.19;68.71;101462.81;4980850;28;97402;-79
2022/01/27 09:13:38;;;;;;;12.77;8.17;;;;;;;7.22;68.59;101466.63;4965702;28;99790;-80
2022/01/27 09:16:05;;;;;;;12.10;7.97;;;;;;;7.22;68.60;101472.88;4983827;28;97057;-78
2022/01/27 09:18:30;;;;;;;15.87;9.27;;;;;;;7.23;68.84;101466.16;4963897;28;97084;-81
2022/01/27 09:20:59;;;;;;;12.90;7.20;;;;;;;7.26;68.92;101473.50;4978452;28;100131;-81
2022/01/27 09:23:24;;;;;;;11.30;7.77;;;;;;;7.28;68.96;101457.38;4968820;28;99298;-80
2022/01/27 09:25:50;;;;;;;9.90;7.20;;;;;;;7.30;68.90;101479.59;4977972;28;97448;-80
2022/01/27 09:28:16;;;;;;;10.73;7.50;;;;;;;7.37;69.05;101467.59;4955726;28;98324;-80
2022/01/27 09:30:43;;;;;;;8.90;6.70;;;;;;;7.39;68.92;101463.22;4944162;28;100741;-82
2022/01/27 09:33:09;;;;;;;12.27;6.53;;;;;;;7.44;68.89;101456.38;4979461;28;97188;-82
2022/01/27 09:35:35;;;;;;;12.80;6.40;;;;;;;7.44;68.79;101465.38;4967441;28;98094;-80
2022/01/27 09:38:00;;;;;;;7.20;5.53;;;;;;;7.49;68.59;101469.50;4982814;28;96987;-79
2022/01/27 09:40:27;;;;;;;11.43;6.40;;;;;;;7.55;68.82;101462.97;4982011;28;118351;-82
2022/01/27 09:42:54;;;;;;;8.70;5.10;;;;;;;7.56;68.99;101472.69;4980849;28;97332;-79
2022/01/27 09:45:21;;;;;;;9.20;6.00;;;;;;;7.61;69.01;101468.59;4965248;28;97117;-80
2022/01/27 09:47:54;;;;;;;9.23;5.57;;;;;;;7.64;68.93;101480.63;4965247;28;97485;-81
2022/01/27 09:52:54;;;;;;;9.13;5.90;;;;;;;7.65;69.00;101473.94;4981552;28;101307;-79
2022/01/27 09:55:21;;;;;;;6.30;5.07;;;;;;;7.68;69.27;101464.81;4966159;28;97901;-79
2022/01/27 09:57:46;;;;;;;7.00;5.30;;;;;;;7.68;69.23;101460.13;4967300;28;97117;-80
2022/01/27 10:00:13;;;;;;;10.43;5.50;;;;;;;7.73;69.13;101477.94;4980450;28;97906;-80
2022/01/27 10:02:39;;;;;;;9.10;5.73;;;;;;;7.78;69.43;101474.56;4963791;28;100171;-79
2022/01/27 10:05:05;;;;;;;8.60;5.90;;;;;;;7.82;69.22;101472.47;4980732;28;98156;-77
2022/01/27 10:07:41;;;;;;;7.10;5.30;;;;;;;7.87;69.03;101466.38;4965626;28;97224;-80
2022/01/27 10:10:11;;;;;;;7.67;5.10;;;;;;;7.88;69.00;101473.41;4987182;28;101231;-82
2022/01/27 10:12:42;;;;;;;6.30;4.73;;;;;;;7.90;69.21;101473.72;4964166;28;103293;-80
2022/01/27 10:15:12;;;;;;;6.57;4.70;;;;;;;7.94;69.11;101453.16;4983069;28;97022;-79
2022/01/27 10:17:58;;;;;;;6.90;5.30;;;;;;;7.94;69.23;101453.16;4964809;28;99346;-81
2022/01/27 10:20:23;;;;;;;6.57;5.23;;;;;;;8.00;69.26;101440.38;4986893;28;102712;-82
2022/01/27 10:23:28;;;;;;;8.23;4.97;;;;;;;8.07;69.51;101439.34;4988019;28;98270;-80
2022/01/27 10:25:59;;;;;;;6.97;4.50;;;;;;;8.11;69.20;101442.69;4988625;28;97172;-79
2022/01/27 10:28:57;;;;;;;5.53;4.67;;;;;;;8.12;69.51;101442.25;4964451;28;97062;-80
2022/01/27 10:31:24;;;;;;;6.40;4.80;;;;;;;8.18;69.20;101426.72;4986436;28;100770;-82
2022/01/27 10:34:04;;;;;;;9.03;5.57;;;;;;;8.16;69.55;101451.06;4986832;28;97483;-79
2022/01/27 10:36:33;;;;;;;9.37;5.30;;;;;;;8.24;69.18;101424.09;4988848;28;97214;-80
2022/01/27 10:39:01;;;;;;;5.20;4.17;;;;;;;8.28;69.38;101425.50;4974702;28;96857;-81
2022/01/27 10:41:31;;;;;;;5.37;4.40;;;;;;;8.30;69.11;101427.78;4968942;28;99168;-80
2022/01/27 10:44:17;;;;;;;4.60;4.10;;;;;;;8.35;69.28;101435.41;4988046;28;97389;-79
2022/01/27 10:47:10;;;;;;;5.27;4.10;;;;;;;8.32;69.74;101430.84;4970978;28;99542;-79
2022/01/27 10:49:41;;;;;;;5.43;4.30;;;;;;;8.34;69.16;101433.13;4988437;28;97557;-78
2022/01/27 10:52:18;;;;;;;5.03;4.23;;;;;;;8.39;69.31;101440.75;4968592;28;100618;-81
2022/01/27 10:54:54;;;;;;;5.40;4.50;;;;;;;8.41;69.50;101427.34;4981923;28;100697;-79
2022/01/27 10:57:22;;;;;;;7.43;4.37;;;;;;;8.40;69.35;101445.78;4964579;28;96798;-81
2022/01/27 10:59:47;;;;;;;7.23;5.10;;;;;;;8.42;69.23;101448.81;4986338;28;97191;-79
2022/01/27 11:02:13;;;;;;;5.50;4.30;;;;;;;8.48;69.56;101437.97;4988972;28;117434;-80
2022/01/27 11:04:41;;;;;;;7.83;5.13;;;;;;;8.48;69.34;101427.78;4971303;28;100128;-81
2022/01/27 11:07:09;;;;;;;6.97;4.80;;;;;;;8.49;69.42;101440.28;4967665;28;96980;-78
2022/01/27 11:09:37;;;;;;;7.20;4.73;;;;;;;8.53;69.52;101443.63;4985898;28;96760;-79
2022/01/27 11:12:07;;;;;;;6.97;5.00;;;;;;;8.56;69.33;101434.47;4985461;28;97599;-79
2022/01/27 11:14:36;;;;;;;8.03;5.13;;;;;;;8.61;69.37;101433.88;4971160;28;99167;-79
2022/01/27 11:17:04;;;;;;;8.50;6.00;;;;;;;8.63;69.47;101436.91;4987344;28;97401;-82
2022/01/27 11:22:24;;;;;;;7.10;5.30;;;;;;;8.68;69.38;101441.00;4987505;28;97336;-82
2022/01/27 11:25:09;;;;;;;7.63;5.93;;;;;;;8.70;69.58;101428.38;4967834;28;104537;-79
2022/01/27 11:27:37;;;;;;;7.83;5.13;;;;;;;8.71;69.63;101407.19;4987671;28;98101;-80
2022/01/27 11:30:18;;;;;;;6.33;4.77;;;;;;;8.75;69.34;101416.78;4969931;28;97220;-79
2022/01/27 11:32:55;;;;;;;6.80;5.30;;;;;;;8.78;69.68;101424.06;4970287;28;103286;-80
2022/01/27 11:35:25;;;;;;;9.17;6.13;;;;;;;8.83;69.58;101415.22;4967618;28;103514;-80
2022/01/27 11:37:56;;;;;;;10.57;6.17;;;;;;;8.87;69.50;101409.56;4985535;28;98020;-82
2022/01/27 11:40:32;;;;;;;8.63;5.77;;;;;;;8.90;69.54;101427.88;4967413;28;97151;-79
2022/01/27 11:42:58;;;;;;;6.80;5.40;;;;;;;8.95;69.42;101408.03;4966856;28;104964;-79
2022/01/27 11:45:23;;;;;;;7.37;5.83;;;;;;;8.99;69.44;101414.88;4963947;28;115358;-80
2022/01/27 11:47:49;;;;;;;7.03;5.53;;;;;;;9.02;69.52;101404.97;4983297;28;96922;-79
2022/01/27 11:50:31;;;;;;;7.73;6.10;;;;;;;9.02;69.80;101396.75;4963630;28;97166;-81
2022/01/27 11:52:57;;;;;;;7.37;5.57;;;;;;;9.06;69.75;101411.78;4965637;28;98366;-80
2022/01/27 11:55:25;;;;;;;9.17;5.97;;;;;;;9.10;69.69;101395.19;4965884;28;126759;-79
2022/01/27 11:57:52;;;;;;;8.73;5.83;;;;;;;9.14;69.57;101398.50;4982146;28;98345;-81
2022/01/27 12:00:28;;;;;;;11.27;5.83;;;;;;;9.17;69.72;101394.84;4964833;28;100112;-81
2022/01/27 12:02:56;;;;;;;5.93;5.23;;;;;;;9.20;69.64;101398.63;4966526;28;99575;-80